sensor_id;sensor_type;location;lat;lon;timestamp;pressure;altitude;pressure_sealevel;temperature;humidity
20630;BME280;17386;43.846;25.950;2023-03-13T00:01:01;101759.81;;;5.25;88.84
20630;BME280;17386;43.846;25.950;2023-03-13T00:03:27;101767.72;;;5.26;88.34
20630;BME280;17386;43.846;25.950;2023-03-13T00:05:57;101771.25;;;5.24;88.43
20630;BME280;17386;43.846;25.950;2023-03-13T00:08:24;101770.31;;;5.09;89.07
20630;BME280;17386;43.846;25.950;2023-03-13T00:10:50;101762.38;;;4.97;89.40
20630;BME280;17386;43.846;25.950;2023-03-13T00:13:16;101779.06;;;5.01;89.32
20630;BME280;17386;43.846;25.950;2023-03-13T00:15:42;101786.03;;;4.91;89.36
20630;BME280;17386;43.846;25.950;2023-03-13T00:18:07;101773.72;;;4.81;89.96
20630;BME280;17386;43.846;25.950;2023-03-13T00:20:33;101781.56;;;4.70;90.59
20630;BME280;17386;43.846;25.950;2023-03-13T00:22:58;101775.41;;;4.71;90.46
20630;BME280;17386;43.846;25.950;2023-03-13T00:25:24;101778.06;;;4.73;90.59
20630;BME280;17386;43.846;25.950;2023-03-13T00:27:49;101766.56;;;4.58;90.72
20630;BME280;17386;43.846;25.950;2023-03-13T00:30:15;101779.72;;;4.58;91.11
20630;BME280;17386;43.846;25.950;2023-03-13T00:32:43;101786.75;;;4.59;91.21
20630;BME280;17386;43.846;25.950;2023-03-13T00:35:10;101788.53;;;4.65;91.19
20630;BME280;17386;43.846;25.950;2023-03-13T00:37:35;101787.72;;;4.72;90.90
20630;BME280;17386;43.846;25.950;2023-03-13T00:40:01;101786.78;;;4.65;91.36
20630;BME280;17386;43.846;25.950;2023-03-13T00:42:28;101798.19;;;4.60;91.91
20630;BME280;17386;43.846;25.950;2023-03-13T00:44:54;101790.25;;;4.57;92.30
20630;BME280;17386;43.846;25.950;2023-03-13T00:47:19;101790.22;;;4.51;92.46
20630;BME280;17386;43.846;25.950;2023-03-13T00:49:44;101795.56;;;4.61;92.26
20630;BME280;17386;43.846;25.950;2023-03-13T00:52:10;101794.72;;;4.69;91.92
20630;BME280;17386;43.846;25.950;2023-03-13T00:54:35;101799.09;;;4.68;91.65
20630;BME280;17386;43.846;25.950;2023-03-13T00:57:01;101798.16;;;4.58;91.97
20630;BME280;17386;43.846;25.950;2023-03-13T00:59:26;101789.38;;;4.58;91.69
20630;BME280;17386;43.846;25.950;2023-03-13T01:01:52;101806.09;;;4.64;91.70
20630;BME280;17386;43.846;25.950;2023-03-13T01:04:17;101796.41;;;4.56;92.06
20630;BME280;17386;43.846;25.950;2023-03-13T01:06:43;101812.19;;;4.56;91.96
20630;BME280;17386;43.846;25.950;2023-03-13T01:09:11;101810.34;;;4.46;92.50
20630;BME280;17386;43.846;25.950;2023-03-13T01:11:39;101813.81;;;4.38;92.92
20630;BME280;17386;43.846;25.950;2023-03-13T01:14:11;101812.06;;;4.37;93.22
20630;BME280;17386;43.846;25.950;2023-03-13T01:16:38;101815.59;;;4.39;92.81
20630;BME280;17386;43.846;25.950;2023-03-13T01:19:11;101812.06;;;4.37;92.78
20630;BME280;17386;43.846;25.950;2023-03-13T01:21:38;101810.31;;;4.36;92.96
20630;BME280;17386;43.846;25.950;2023-03-13T01:24:04;101815.63;;;4.41;92.50
20630;BME280;17386;43.846;25.950;2023-03-13T01:26:29;101820.88;;;4.44;92.58
20630;BME280;17386;43.846;25.950;2023-03-13T01:28:55;101820.03;;;4.50;92.44
20630;BME280;17386;43.846;25.950;2023-03-13T01:31:33;101820.81;;;4.33;93.42
20630;BME280;17386;43.846;25.950;2023-03-13T01:34:01;101827.00;;;4.40;93.17
20630;BME280;17386;43.846;25.950;2023-03-13T01:36:27;101833.09;;;4.37;93.13
20630;BME280;17386;43.846;25.950;2023-03-13T01:38:55;101828.72;;;4.33;93.24
20630;BME280;17386;43.846;25.950;2023-03-13T01:41:21;101832.19;;;4.31;93.22
20630;BME280;17386;43.846;25.950;2023-03-13T01:43:47;101833.00;;;4.21;93.40
20630;BME280;17386;43.846;25.950;2023-03-13T01:46:17;101831.25;;;4.23;93.03
20630;BME280;17386;43.846;25.950;2023-03-13T01:51:13;101829.34;;;4.03;93.69
20630;BME280;17386;43.846;25.950;2023-03-13T01:53:43;101840.66;;;3.98;94.23
20630;BME280;17386;43.846;25.950;2023-03-13T01:56:14;101835.34;;;3.89;94.31
20630;BME280;17386;43.846;25.950;2023-03-13T01:58:41;101841.47;;;3.84;94.55
20630;BME280;17386;43.846;25.950;2023-03-13T02:01:07;101850.16;;;3.80;95.46
20630;BME280;17386;43.846;25.950;2023-03-13T02:03:35;101854.63;;;3.89;95.22
20630;BME280;17386;43.846;25.950;2023-03-13T02:06:02;101853.81;;;3.96;95.21
20630;BME280;17386;43.846;25.950;2023-03-13T02:08:33;101857.31;;;3.95;95.62
20630;BME280;17386;43.846;25.950;2023-03-13T02:11:15;101844.09;;;3.84;95.95
20630;BME280;17386;43.846;25.950;2023-03-13T02:13:43;101850.16;;;3.82;96.41
20630;BME280;17386;43.846;25.950;2023-03-13T02:16:10;101853.72;;;3.86;96.19
20630;BME280;17386;43.846;25.950;2023-03-13T02:18:35;101857.09;;;3.74;96.43
20630;BME280;17386;43.846;25.950;2023-03-13T02:21:26;101864.03;;;3.66;96.99
20630;BME280;17386;43.846;25.950;2023-03-13T02:24:07;101872.81;;;3.69;96.75
20630;BME280;17386;43.846;25.950;2023-03-13T02:26:36;101868.44;;;3.70;96.79
20630;BME280;17386;43.846;25.950;2023-03-13T02:29:02;101871.03;;;3.65;96.99
20630;BME280;17386;43.846;25.950;2023-03-13T02:31:27;101876.31;;;3.67;96.68
20630;BME280;17386;43.846;25.950;2023-03-13T02:33:57;101883.34;;;3.69;96.63
20630;BME280;17386;43.846;25.950;2023-03-13T02:36:24;101885.09;;;3.70;96.52
20630;BME280;17386;43.846;25.950;2023-03-13T02:38:54;101882.50;;;3.73;96.74
20630;BME280;17386;43.846;25.950;2023-03-13T02:41:21;101886.88;;;3.73;96.55
20630;BME280;17386;43.846;25.950;2023-03-13T02:43:48;101895.44;;;3.56;97.23
20630;BME280;17386;43.846;25.950;2023-03-13T02:46:15;101901.56;;;3.54;97.40
20630;BME280;17386;43.846;25.950;2023-03-13T02:48:43;101902.03;;;3.21;98.95
20630;BME280;17386;43.846;25.950;2023-03-13T02:51:15;101904.53;;;3.12;100.00
20630;BME280;17386;43.846;25.950;2023-03-13T02:53:45;101897.56;;;3.15;100.00
20630;BME280;17386;43.846;25.950;2023-03-13T02:56:14;101906.19;;;3.04;100.00
20630;BME280;17386;43.846;25.950;2023-03-13T02:58:41;101913.97;;;2.99;100.00
20630;BME280;17386;43.846;25.950;2023-03-13T03:01:07;101912.91;;;2.86;100.00
20630;BME280;17386;43.846;25.950;2023-03-13T03:03:34;101906.59;;;2.73;100.00
20630;BME280;17386;43.846;25.950;2023-03-13T03:06:00;101913.53;;;2.68;100.00
20630;BME280;17386;43.846;25.950;2023-03-13T03:08:26;101913.75;;;2.82;100.00
20630;BME280;17386;43.846;25.950;2023-03-13T03:10:52;101916.50;;;2.93;100.00
20630;BME280;17386;43.846;25.950;2023-03-13T03:13:17;101930.69;;;3.03;100.00
20630;BME280;17386;43.846;25.950;2023-03-13T03:15:43;101922.81;;;3.04;100.00
20630;BME280;17386;43.846;25.950;2023-03-13T03:18:08;101930.78;;;3.10;100.00
20630;BME280;17386;43.846;25.950;2023-03-13T03:20:33;101940.44;;;3.14;100.00
20630;BME280;17386;43.846;25.950;2023-03-13T03:22:59;101937.00;;;3.17;100.00
20630;BME280;17386;43.846;25.950;2023-03-13T03:25:24;101945.75;;;3.17;100.00
20630;BME280;17386;43.846;25.950;2023-03-13T03:27:49;101935.88;;;2.99;100.00
20630;BME280;17386;43.846;25.950;2023-03-13T03:30:15;101937.41;;;2.85;100.00
20630;BME280;17386;43.846;25.950;2023-03-13T03:32:40;101941.88;;;2.92;100.00
20630;BME280;17386;43.846;25.950;2023-03-13T03:35:07;101950.69;;;2.96;100.00
20630;BME280;17386;43.846;25.950;2023-03-13T03:37:32;101970.75;;;2.92;100.00
20630;BME280;17386;43.846;25.950;2023-03-13T03:39:57;101970.81;;;2.95;99.54
20630;BME280;17386;43.846;25.950;2023-03-13T03:42:23;101961.13;;;2.91;98.92
20630;BME280;17386;43.846;25.950;2023-03-13T03:44:48;101976.78;;;2.87;99.02
20630;BME280;17386;43.846;25.950;2023-03-13T03:47:13;101988.81;;;2.72;99.91
20630;BME280;17386;43.846;25.950;2023-03-13T03:49:39;101985.50;;;2.84;99.90
20630;BME280;17386;43.846;25.950;2023-03-13T03:52:05;101986.38;;;2.83;99.24
20630;BME280;17386;43.846;25.950;2023-03-13T03:54:30;102003.09;;;2.90;99.37
20630;BME280;17386;43.846;25.950;2023-03-13T03:56:56;101994.41;;;2.94;98.54
20630;BME280;17386;43.846;25.950;2023-03-13T03:59:21;101989.97;;;2.88;97.99
20630;BME280;17386;43.846;25.950;2023-03-13T04:01:46;102001.28;;;2.87;97.75
20630;BME280;17386;43.846;25.950;2023-03-13T04:04:12;102002.81;;;2.73;97.84
20630;BME280;17386;43.846;25.950;2023-03-13T04:06:37;102005.50;;;2.76;98.14
20630;BME280;17386;43.846;25.950;2023-03-13T04:09:03;102008.94;;;2.73;98.07
20630;BME280;17386;43.846;25.950;2023-03-13T04:11:29;102016.81;;;2.73;97.80
20630;BME280;17386;43.846;25.950;2023-03-13T04:13:54;102019.50;;;2.75;97.93
20630;BME280;17386;43.846;25.950;2023-03-13T04:16:20;102019.53;;;2.78;97.89
20630;BME280;17386;43.846;25.950;2023-03-13T04:18:45;102022.13;;;2.77;97.63
20630;BME280;17386;43.846;25.950;2023-03-13T04:21:10;102028.16;;;2.72;97.47
20630;BME280;17386;43.846;25.950;2023-03-13T04:23:36;102031.63;;;2.70;97.78
20630;BME280;17386;43.846;25.950;2023-03-13T04:26:01;102032.44;;;2.66;98.18
20630;BME280;17386;43.846;25.950;2023-03-13T04:28:27;102040.41;;;2.72;97.68
20630;BME280;17386;43.846;25.950;2023-03-13T04:30:52;102040.47;;;2.75;97.69
20630;BME280;17386;43.846;25.950;2023-03-13T04:33:22;102051.00;;;2.77;97.41
20630;BME280;17386;43.846;25.950;2023-03-13T04:35:47;102057.13;;;2.77;97.20
20630;BME280;17386;43.846;25.950;2023-03-13T04:38:13;102067.59;;;2.76;97.05
20630;BME280;17386;43.846;25.950;2023-03-13T04:40:38;102062.34;;;2.76;97.27
20630;BME280;17386;43.846;25.950;2023-03-13T04:43:04;102072.81;;;2.74;97.17
20630;BME280;17386;43.846;25.950;2023-03-13T04:45:29;102072.72;;;2.68;97.01
20630;BME280;17386;43.846;25.950;2023-03-13T04:47:54;102067.53;;;2.72;97.37
20630;BME280;17386;43.846;25.950;2023-03-13T04:50:20;102076.22;;;2.68;96.87
20630;BME280;17386;43.846;25.950;2023-03-13T04:52:45;102082.47;;;2.75;96.59
20630;BME280;17386;43.846;25.950;2023-03-13T04:55:11;102076.41;;;2.81;96.41
20630;BME280;17386;43.846;25.950;2023-03-13T04:57:36;102073.00;;;2.85;96.35
20630;BME280;17386;43.846;25.950;2023-03-13T05:00:03;102074.72;;;2.83;96.39
20630;BME280;17386;43.846;25.950;2023-03-13T05:02:30;102086.09;;;2.83;95.92
20630;BME280;17386;43.846;25.950;2023-03-13T05:04:56;102088.78;;;2.86;95.86
20630;BME280;17386;43.846;25.950;2023-03-13T05:07:21;102098.53;;;2.93;95.74
20630;BME280;17386;43.846;25.950;2023-03-13T05:09:46;102085.41;;;2.93;95.44
20630;BME280;17386;43.846;25.950;2023-03-13T05:12:12;102088.94;;;2.95;95.16
20630;BME280;17386;43.846;25.950;2023-03-13T05:14:37;102087.25;;;3.00;95.08
20630;BME280;17386;43.846;25.950;2023-03-13T05:17:02;102090.88;;;3.07;94.75
20630;BME280;17386;43.846;25.950;2023-03-13T05:19:28;102090.09;;;3.13;94.89
20630;BME280;17386;43.846;25.950;2023-03-13T05:21:53;102094.28;;;3.01;94.95
20630;BME280;17386;43.846;25.950;2023-03-13T05:24:19;102099.47;;;2.97;95.01
20630;BME280;17386;43.846;25.950;2023-03-13T05:26:44;102103.78;;;2.93;95.91
20630;BME280;17386;43.846;25.950;2023-03-13T05:29:10;102104.88;;;3.08;95.30
20630;BME280;17386;43.846;25.950;2023-03-13T05:31:35;102103.31;;;3.17;94.89
20630;BME280;17386;43.846;25.950;2023-03-13T05:34:00;102100.94;;;3.34;95.06
20630;BME280;17386;43.846;25.950;2023-03-13T05:36:26;102102.97;;;3.50;96.57
20630;BME280;17386;43.846;25.950;2023-03-13T05:38:51;102103.09;;;3.60;93.89
20630;BME280;17386;43.846;25.950;2023-03-13T05:41:17;102103.09;;;3.60;92.37
20630;BME280;17386;43.846;25.950;2023-03-13T05:43:42;102112.03;;;3.71;91.91
20630;BME280;17386;43.846;25.950;2023-03-13T05:46:07;102113.03;;;3.79;91.37
20630;BME280;17386;43.846;25.950;2023-03-13T05:48:33;102121.88;;;3.87;90.90
20630;BME280;17386;43.846;25.950;2023-03-13T05:50:58;102121.22;;;4.02;90.47
20630;BME280;17386;43.846;25.950;2023-03-13T05:53:24;102124.00;;;4.13;90.23
20630;BME280;17386;43.846;25.950;2023-03-13T05:55:49;102126.72;;;4.20;89.57
20630;BME280;17386;43.846;25.950;2023-03-13T05:58:15;102123.34;;;4.32;89.67
20630;BME280;17386;43.846;25.950;2023-03-13T06:00:40;102125.22;;;4.42;88.96
20630;BME280;17386;43.846;25.950;2023-03-13T06:03:08;102126.91;;;4.37;88.46
20630;BME280;17386;43.846;25.950;2023-03-13T06:05:33;102128.47;;;4.20;89.04
20630;BME280;17386;43.846;25.950;2023-03-13T06:07:59;102123.03;;;4.07;90.07
20630;BME280;17386;43.846;25.950;2023-03-13T06:10:24;102132.84;;;4.21;90.49
20630;BME280;17386;43.846;25.950;2023-03-13T06:12:54;102131.13;;;4.23;90.73
20630;BME280;17386;43.846;25.950;2023-03-13T06:15:20;102139.34;;;4.50;89.76
20630;BME280;17386;43.846;25.950;2023-03-13T06:17:46;102133.28;;;4.59;89.40
20630;BME280;17386;43.846;25.950;2023-03-13T06:20:12;102134.88;;;4.45;89.71
20630;BME280;17386;43.846;25.950;2023-03-13T06:22:37;102128.19;;;4.73;89.51
20630;BME280;17386;43.846;25.950;2023-03-13T06:25:03;102132.78;;;4.92;87.89
20630;BME280;17386;43.846;25.950;2023-03-13T06:27:29;102136.47;;;5.09;87.57
20630;BME280;17386;43.846;25.950;2023-03-13T06:29:54;102113.75;;;5.27;87.34
20630;BME280;17386;43.846;25.950;2023-03-13T06:32:19;102120.06;;;5.42;86.75
20630;BME280;17386;43.846;25.950;2023-03-13T06:34:45;102113.13;;;5.61;85.61
20630;BME280;17386;43.846;25.950;2023-03-13T06:37:10;102106.22;;;5.79;83.97
20630;BME280;17386;43.846;25.950;2023-03-13T06:39:36;102096.59;;;5.90;83.01
20630;BME280;17386;43.846;25.950;2023-03-13T06:42:01;102089.66;;;6.02;82.27
20630;BME280;17386;43.846;25.950;2023-03-13T06:44:27;102097.44;;;5.76;81.72
20630;BME280;17386;43.846;25.950;2023-03-13T06:46:52;102092.16;;;5.83;80.24
20630;BME280;17386;43.846;25.950;2023-03-13T06:49:18;102094.09;;;6.05;79.34
20630;BME280;17386;43.846;25.950;2023-03-13T06:51:43;102103.75;;;6.11;76.93
20630;BME280;17386;43.846;25.950;2023-03-13T06:54:08;102105.53;;;6.10;76.48
20630;BME280;17386;43.846;25.950;2023-03-13T06:56:34;102113.38;;;5.95;76.17
20630;BME280;17386;43.846;25.950;2023-03-13T06:58:59;102107.16;;;5.84;77.33
20630;BME280;17386;43.846;25.950;2023-03-13T07:01:25;102114.28;;;6.00;77.42
20630;BME280;17386;43.846;25.950;2023-03-13T07:03:50;102109.09;;;6.21;76.67
20630;BME280;17386;43.846;25.950;2023-03-13T07:06:16;102106.53;;;6.40;75.74
20630;BME280;17386;43.846;25.950;2023-03-13T07:08:42;102117.97;;;6.36;75.13
20630;BME280;17386;43.846;25.950;2023-03-13T07:11:10;102117.03;;;6.21;75.83
20630;BME280;17386;43.846;25.950;2023-03-13T07:13:36;102114.38;;;6.24;76.27
20630;BME280;17386;43.846;25.950;2023-03-13T07:16:07;102113.59;;;6.51;75.44
20630;BME280;17386;43.846;25.950;2023-03-13T07:18:33;102114.47;;;6.49;75.76
20630;BME280;17386;43.846;25.950;2023-03-13T07:21:00;102102.22;;;6.75;74.79
20630;BME280;17386;43.846;25.950;2023-03-13T07:23:27;102103.13;;;6.74;74.74
20630;BME280;17386;43.846;25.950;2023-03-13T07:25:57;102105.75;;;6.76;75.26
20630;BME280;17386;43.846;25.950;2023-03-13T07:28:23;102105.78;;;7.05;74.51
20630;BME280;17386;43.846;25.950;2023-03-13T07:30:49;102109.31;;;7.19;74.27
20630;BME280;17386;43.846;25.950;2023-03-13T07:33:15;102122.50;;;6.89;74.29
20630;BME280;17386;43.846;25.950;2023-03-13T07:35:46;102119.88;;;6.98;74.76
20630;BME280;17386;43.846;25.950;2023-03-13T07:38:12;102114.59;;;7.19;74.63
20630;BME280;17386;43.846;25.950;2023-03-13T07:40:37;102109.31;;;7.45;73.73
20630;BME280;17386;43.846;25.950;2023-03-13T07:43:03;102112.84;;;7.24;73.81
20630;BME280;17386;43.846;25.950;2023-03-13T07:45:28;102113.72;;;7.37;74.48
20630;BME280;17386;43.846;25.950;2023-03-13T07:47:53;102118.09;;;7.55;73.05
20630;BME280;17386;43.846;25.950;2023-03-13T07:50:19;102116.28;;;7.80;71.76
20630;BME280;17386;43.846;25.950;2023-03-13T07:52:44;102112.75;;;7.85;70.71
20630;BME280;17386;43.846;25.950;2023-03-13T07:55:09;102121.56;;;7.97;71.08
20630;BME280;17386;43.846;25.950;2023-03-13T07:57:35;102120.69;;;7.98;70.81
20630;BME280;17386;43.846;25.950;2023-03-13T08:00:00;102123.28;;;8.02;70.71
20630;BME280;17386;43.846;25.950;2023-03-13T08:02:26;102120.69;;;7.91;71.11
20630;BME280;17386;43.846;25.950;2023-03-13T08:04:51;102117.16;;;7.97;71.68
20630;BME280;17386;43.846;25.950;2023-03-13T08:07:17;102122.34;;;8.25;71.20
20630;BME280;17386;43.846;25.950;2023-03-13T08:09:43;102119.63;;;8.47;69.92
20630;BME280;17386;43.846;25.950;2023-03-13T08:12:08;102116.78;;;8.78;69.93
20630;BME280;17386;43.846;25.950;2023-03-13T08:14:34;102108.00;;;8.73;69.40
20630;BME280;17386;43.846;25.950;2023-03-13T08:16:59;102115.03;;;8.79;67.76
20630;BME280;17386;43.846;25.950;2023-03-13T08:19:24;102107.88;;;8.90;68.48
20630;BME280;17386;43.846;25.950;2023-03-13T08:21:50;102108.69;;;9.02;68.30
20630;BME280;17386;43.846;25.950;2023-03-13T08:24:15;102102.38;;;9.17;67.39
20630;BME280;17386;43.846;25.950;2023-03-13T08:26:41;102099.81;;;9.07;66.63
20630;BME280;17386;43.846;25.950;2023-03-13T08:29:12;102101.31;;;9.38;65.79
20630;BME280;17386;43.846;25.950;2023-03-13T08:31:44;102111.16;;;9.22;65.39
20630;BME280;17386;43.846;25.950;2023-03-13T08:34:13;102103.22;;;9.19;65.25
20630;BME280;17386;43.846;25.950;2023-03-13T08:36:39;102103.00;;;9.45;65.07
20630;BME280;17386;43.846;25.950;2023-03-13T08:39:10;102100.28;;;9.51;64.25
20630;BME280;17386;43.846;25.950;2023-03-13T08:41:36;102094.25;;;9.37;66.02
20630;BME280;17386;43.846;25.950;2023-03-13T08:44:03;102099.41;;;9.52;65.68
20630;BME280;17386;43.846;25.950;2023-03-13T08:46:30;102097.56;;;9.62;66.47
20630;BME280;17386;43.846;25.950;2023-03-13T08:48:56;102091.91;;;9.93;64.72
20630;BME280;17386;43.846;25.950;2023-03-13T08:51:24;102082.81;;;10.13;63.69
20630;BME280;17386;43.846;25.950;2023-03-13T08:53:50;102084.44;;;10.27;62.59
20630;BME280;17386;43.846;25.950;2023-03-13T08:56:18;102079.13;;;10.22;60.95
20630;BME280;17386;43.846;25.950;2023-03-13T08:58:51;102076.28;;;10.40;61.28
20630;BME280;17386;43.846;25.950;2023-03-13T09:01:18;102084.97;;;10.53;60.74
20630;BME280;17386;43.846;25.950;2023-03-13T09:03:44;102087.47;;;10.62;60.61
20630;BME280;17386;43.846;25.950;2023-03-13T09:06:10;102074.63;;;10.32;61.18
20630;BME280;17386;43.846;25.950;2023-03-13T09:08:36;102076.22;;;10.45;60.54
20630;BME280;17386;43.846;25.950;2023-03-13T09:11:04;102076.13;;;10.53;60.86
20630;BME280;17386;43.846;25.950;2023-03-13T09:13:32;102078.03;;;10.43;61.20
20630;BME280;17386;43.846;25.950;2023-03-13T09:16:09;102078.66;;;11.19;59.55
20630;BME280;17386;43.846;25.950;2023-03-13T09:18:35;102070.75;;;11.62;56.58
20630;BME280;17386;43.846;25.950;2023-03-13T09:21:02;102084.63;;;11.79;56.48
20630;BME280;17386;43.846;25.950;2023-03-13T09:23:27;102083.47;;;11.96;55.32
20630;BME280;17386;43.846;25.950;2023-03-13T09:25:54;102083.38;;;11.99;54.37
20630;BME280;17386;43.846;25.950;2023-03-13T09:28:21;102072.56;;;12.07;55.45
20630;BME280;17386;43.846;25.950;2023-03-13T09:30:47;102074.25;;;12.52;52.98
20630;BME280;17386;43.846;25.950;2023-03-13T09:33:14;102081.16;;;12.61;52.43
20630;BME280;17386;43.846;25.950;2023-03-13T09:35:40;102072.97;;;12.70;52.10
20630;BME280;17386;43.846;25.950;2023-03-13T09:38:06;102072.50;;;12.88;51.46
20630;BME280;17386;43.846;25.950;2023-03-13T09:40:37;102077.25;;;12.77;49.81
20630;BME280;17386;43.846;25.950;2023-03-13T09:45:44;102073.72;;;12.75;50.75
20630;BME280;17386;43.846;25.950;2023-03-13T09:48:32;102067.94;;;13.63;48.71
20630;BME280;17386;43.846;25.950;2023-03-13T09:51:05;102068.25;;;13.53;48.37
20630;BME280;17386;43.846;25.950;2023-03-13T09:56:39;102052.81;;;14.56;45.96
20630;BME280;17386;43.846;25.950;2023-03-13T10:02:03;102052.22;;;14.74;45.80
20630;BME280;17386;43.846;25.950;2023-03-13T10:04:38;102045.25;;;14.96;44.83
20630;BME280;17386;43.846;25.950;2023-03-13T10:07:10;102041.34;;;15.07;43.69
20630;BME280;17386;43.846;25.950;2023-03-13T10:09:36;102038.47;;;14.58;44.71
20630;BME280;17386;43.846;25.950;2023-03-13T10:12:20;102037.22;;;14.96;44.55
20630;BME280;17386;43.846;25.950;2023-03-13T10:17:36;102028.06;;;16.03;41.88
20630;BME280;17386;43.846;25.950;2023-03-13T10:20:27;102024.31;;;16.54;40.09
20630;BME280;17386;43.846;25.950;2023-03-13T10:22:58;102024.38;;;16.97;40.03
20630;BME280;17386;43.846;25.950;2023-03-13T10:25:35;102019.28;;;16.67;38.68
20630;BME280;17386;43.846;25.950;2023-03-13T10:28:07;102014.50;;;16.08;39.56
20630;BME280;17386;43.846;25.950;2023-03-13T10:30:35;102015.66;;;16.01;38.72
20630;BME280;17386;43.846;25.950;2023-03-13T10:35:42;101991.13;;;17.81;37.49
20630;BME280;17386;43.846;25.950;2023-03-13T10:38:12;102000.75;;;18.43;35.93
20630;BME280;17386;43.846;25.950;2023-03-13T10:40:38;101989.59;;;18.86;32.55
20630;BME280;17386;43.846;25.950;2023-03-13T10:43:12;101996.19;;;17.27;35.13
20630;BME280;17386;43.846;25.950;2023-03-13T10:45:37;101990.44;;;16.06;38.04
20630;BME280;17386;43.846;25.950;2023-03-13T10:48:24;101982.44;;;16.72;38.00
20630;BME280;17386;43.846;25.950;2023-03-13T10:50:53;101973.72;;;17.09;36.72
20630;BME280;17386;43.846;25.950;2023-03-13T10:58:42;101956.13;;;18.01;35.41
20630;BME280;17386;43.846;25.950;2023-03-13T11:01:25;101948.59;;;17.70;34.37
20630;BME280;17386;43.846;25.950;2023-03-13T11:03:52;101953.31;;;17.05;34.09
20630;BME280;17386;43.846;25.950;2023-03-13T11:06:34;101944.50;;;16.37;35.44
20630;BME280;17386;43.846;25.950;2023-03-13T11:09:15;101949.97;;;16.12;35.96
20630;BME280;17386;43.846;25.950;2023-03-13T11:11:53;101945.88;;;15.80;37.35
20630;BME280;17386;43.846;25.950;2023-03-13T11:14:23;101950.72;;;16.38;37.58
20630;BME280;17386;43.846;25.950;2023-03-13T11:16:50;101937.44;;;16.99;35.34
20630;BME280;17386;43.846;25.950;2023-03-13T11:30:53;101944.38;;;15.73;38.13
20630;BME280;17386;43.846;25.950;2023-03-13T11:33:46;101934.88;;;16.10;37.71
20630;BME280;17386;43.846;25.950;2023-03-13T11:39:20;101923.09;;;17.00;35.45
20630;BME280;17386;43.846;25.950;2023-03-13T11:42:17;101921.03;;;16.42;35.65
20630;BME280;17386;43.846;25.950;2023-03-13T11:55:21;101906.69;;;16.44;35.44
20630;BME280;17386;43.846;25.950;2023-03-13T12:00:29;101895.25;;;16.60;34.18
20630;BME280;17386;43.846;25.950;2023-03-13T12:05:41;101887.72;;;17.11;32.18
20630;BME280;17386;43.846;25.950;2023-03-13T12:08:27;101887.66;;;16.92;32.05
20630;BME280;17386;43.846;25.950;2023-03-13T12:13:38;101876.44;;;17.81;30.32
20630;BME280;17386;43.846;25.950;2023-03-13T12:16:18;101876.13;;;18.06;29.60
20630;BME280;17386;43.846;25.950;2023-03-13T12:18:45;101860.66;;;17.92;30.15
20630;BME280;17386;43.846;25.950;2023-03-13T12:21:20;101877.19;;;18.38;29.00
20630;BME280;17386;43.846;25.950;2023-03-13T12:24:03;101876.16;;;18.77;28.21
20630;BME280;17386;43.846;25.950;2023-03-13T12:26:41;101876.47;;;19.21;28.15
20630;BME280;17386;43.846;25.950;2023-03-13T12:29:24;101876.47;;;18.71;28.71
20630;BME280;17386;43.846;25.950;2023-03-13T12:31:56;101879.16;;;18.71;28.54
20630;BME280;17386;43.846;25.950;2023-03-13T12:34:35;101872.22;;;18.12;29.35
20630;BME280;17386;43.846;25.950;2023-03-13T12:40:00;101868.72;;;18.46;29.02
20630;BME280;17386;43.846;25.950;2023-03-13T12:45:05;101859.81;;;18.97;27.73
20630;BME280;17386;43.846;25.950;2023-03-13T12:47:35;101860.31;;;19.21;27.14
20630;BME280;17386;43.846;25.950;2023-03-13T12:50:35;101865.78;;;18.69;27.90
20630;BME280;17386;43.846;25.950;2023-03-13T12:58:41;101861.63;;;16.52;31.32
20630;BME280;17386;43.846;25.950;2023-03-13T13:01:18;101863.50;;;16.07;31.72
20630;BME280;17386;43.846;25.950;2023-03-13T13:06:20;101850.69;;;15.47;32.21
20630;BME280;17386;43.846;25.950;2023-03-13T13:08:46;101860.94;;;15.12;32.80
20630;BME280;17386;43.846;25.950;2023-03-13T13:14:33;101854.94;;;15.05;33.42
20630;BME280;17386;43.846;25.950;2023-03-13T13:16:59;101849.63;;;14.79;33.21
20630;BME280;17386;43.846;25.950;2023-03-13T13:19:47;101847.19;;;14.46;33.62
20630;BME280;17386;43.846;25.950;2023-03-13T13:32:43;101833.97;;;14.15;34.28
20630;BME280;17386;43.846;25.950;2023-03-13T13:37:40;101821.47;;;13.89;34.96
20630;BME280;17386;43.846;25.950;2023-03-13T13:40:17;101814.38;;;13.88;34.43
20630;BME280;17386;43.846;25.950;2023-03-13T13:47:42;101807.75;;;13.74;34.64
20630;BME280;17386;43.846;25.950;2023-03-13T13:50:26;101816.69;;;13.73;35.05
20630;BME280;17386;43.846;25.950;2023-03-13T13:55:56;101802.41;;;13.74;35.61
20630;BME280;17386;43.846;25.950;2023-03-13T13:58:32;101801.22;;;13.82;35.54
20630;BME280;17386;43.846;25.950;2023-03-13T14:01:01;101799.47;;;13.81;34.37
20630;BME280;17386;43.846;25.950;2023-03-13T14:03:38;101800.84;;;13.66;34.90
20630;BME280;17386;43.846;25.950;2023-03-13T14:06:20;101807.81;;;13.71;35.10
20630;BME280;17386;43.846;25.950;2023-03-13T14:08:51;101802.66;;;13.64;34.89
20630;BME280;17386;43.846;25.950;2023-03-13T14:14:12;101803.16;;;13.49;35.19
20630;BME280;17386;43.846;25.950;2023-03-13T14:16:38;101802.16;;;13.52;35.40
20630;BME280;17386;43.846;25.950;2023-03-13T14:19:20;101801.97;;;13.58;35.59
20630;BME280;17386;43.846;25.950;2023-03-13T14:21:46;101799.47;;;13.53;35.71
20630;BME280;17386;43.846;25.950;2023-03-13T14:24:13;101796.63;;;13.59;35.49
20630;BME280;17386;43.846;25.950;2023-03-13T14:26:41;101792.16;;;13.58;35.58